Time;durP1;ratioP1;P1;durP2;ratioP2;P2;SDS_P1;SDS_P2;PMS_P1;PMS_P2;Temp;Humidity;BMP_temperature;BMP_pressure;BME280_temperature;BME280_humidity;BME280_pressure;Samples;Min_cycle;Max_cycle;Signal;HPM_P1;HPM_P2
2024/01/03 00:00:58;;;;;;;7.03;1.70;;;;;;;10.08;82.76;98671.84;5035750;28;20032;-87
2024/01/03 00:03:27;;;;;;;7.47;1.73;;;;;;;10.14;81.79;98677.59;5034902;28;20374;-89
2024/01/03 00:05:53;;;;;;;8.30;1.88;;;;;;;10.17;81.23;98668.81;5035149;28;20025;-88
2024/01/03 00:08:18;;;;;;;8.20;1.70;;;;;;;10.16;82.11;98677.50;5035410;28;20063;-87
2024/01/03 00:10:55;;;;;;;6.80;1.70;;;;;;;10.09;82.85;98676.94;5034103;28;20056;-87
2024/01/03 00:13:29;;;;;;;7.68;2.08;;;;;;;10.15;81.14;98674.09;5034675;28;20484;-89
2024/01/03 00:16:03;;;;;;;8.05;1.85;;;;;;;10.12;82.40;98699.31;5034404;28;20026;-87
2024/01/03 00:18:45;;;;;;;11.15;1.95;;;;;;;10.18;80.29;98699.00;5035107;28;20041;-89
2024/01/03 00:21:16;;;;;;;8.65;2.20;;;;;;;10.18;81.08;98702.47;5034891;28;20361;-88
2024/01/03 00:23:52;;;;;;;8.02;1.77;;;;;;;10.15;81.49;98697.41;5033882;28;20030;-87
2024/01/03 00:26:20;;;;;;;;;;;;;;;10.11;79.92;98706.25;5035013;28;20033;-86
2024/01/03 00:28:46;;;;;;;4.88;1.75;;;;;;;10.09;82.73;98708.06;5033695;28;20007;-87
2024/01/03 00:31:25;;;;;;;8.87;2.00;;;;;;;10.06;82.19;98728.97;5033028;28;20124;-87
2024/01/03 00:33:50;;;;;;;8.48;1.73;;;;;;;10.04;82.12;98730.78;5034388;28;20462;-85
2024/01/03 00:36:16;;;;;;;10.10;2.13;;;;;;;10.03;82.66;98722.16;5033842;28;20037;-85
2024/01/03 00:38:42;;;;;;;5.87;1.70;;;;;;;10.02;82.59;98743.78;5033564;28;20541;-86
2024/01/03 00:41:12;;;;;;;8.88;2.08;;;;;;;9.99;84.29;98736.19;5034389;28;20072;-85
2024/01/03 00:43:38;;;;;;;15.77;2.55;;;;;;;10.01;84.15;98729.19;5034069;28;20030;-86
2024/01/03 00:46:04;;;;;;;11.82;2.60;;;;;;;9.97;85.17;98730.22;5033629;28;20025;-86
2024/01/03 00:48:42;;;;;;;11.25;2.38;;;;;;;9.94;86.65;98743.31;5034773;28;20407;-86
2024/01/03 00:51:08;;;;;;;9.82;2.35;;;;;;;9.93;87.13;98717.47;5033244;28;20041;-85
2024/01/03 00:53:33;;;;;;;12.17;2.47;;;;;;;9.84;87.80;98745.50;5033561;28;20401;-87
2024/01/03 00:56:23;;;;;;;11.53;2.17;;;;;;;9.85;88.97;98759.28;5033961;28;20029;-85
2024/01/03 00:58:48;;;;;;;11.05;2.60;;;;;;;9.73;89.72;98737.38;5013505;28;20030;-86
2024/01/03 01:01:13;;;;;;;13.13;2.80;;;;;;;9.82;90.61;98742.13;5014316;28;20368;-86
2024/01/03 01:03:55;;;;;;;11.40;2.57;;;;;;;9.66;91.70;98726.47;5013815;28;20072;-85
2024/01/03 01:07:04;;;;;;;12.98;2.60;;;;;;;9.81;91.48;98749.97;5013726;28;20045;-86
2024/01/03 01:13:01;;;;;;;16.48;3.00;;;;;;;9.71;93.29;98759.94;4984552;28;20512;-86
2024/01/03 01:15:26;;;;;;;15.15;2.67;;;;;;;9.69;93.01;98759.97;5014295;28;20113;-86
2024/01/03 01:21:26;;;;;;;15.15;3.00;;;;;;;9.57;94.22;98747.56;5029990;28;20107;-87
2024/01/03 01:23:52;;;;;;;14.85;2.75;;;;;;;9.65;93.69;98747.22;5032163;28;20037;-86
2024/01/03 01:26:23;;;;;;;11.03;3.03;;;;;;;9.61;93.80;98763.84;5033203;28;20051;-85
2024/01/03 01:29:00;;;;;;;15.98;2.90;;;;;;;9.55;93.83;98755.41;5013812;28;20037;-86
2024/01/03 01:31:25;;;;;;;12.68;2.80;;;;;;;9.65;94.25;98776.56;5017032;28;20029;-88
2024/01/03 01:34:07;;;;;;;12.57;2.50;;;;;;;9.64;94.41;98787.84;5015755;28;20107;-87
2024/01/03 01:36:38;;;;;;;12.05;2.85;;;;;;;9.69;94.41;98793.66;5078135;22;20019;-87
2024/01/03 01:39:03;;;;;;;15.82;2.63;;;;;;;9.66;94.74;98780.00;5054558;28;20036;-86
2024/01/03 01:41:28;;;;;;;14.80;2.90;;;;;;;9.64;94.58;98790.44;5052775;28;20029;-86
2024/01/03 01:43:53;;;;;;;12.67;2.57;;;;;;;9.65;94.49;98771.41;5047973;22;20159;-87
2024/01/03 01:46:19;;;;;;;13.03;2.90;;;;;;;9.65;94.73;98784.34;5033194;28;20026;-86
2024/01/03 01:48:46;;;;;;;13.80;3.00;;;;;;;9.68;94.95;98791.97;5032600;28;20091;-86
2024/01/03 01:51:12;;;;;;;6.60;2.13;;;;;;;9.65;95.69;98788.66;5033441;28;20083;-86
2024/01/03 01:53:38;;;;;;;10.77;2.53;;;;;;;9.65;95.82;98796.44;5033148;28;20032;-86
2024/01/03 01:56:04;;;;;;;12.20;2.20;;;;;;;9.63;95.64;98812.06;5032140;28;20037;-86
2024/01/03 01:58:29;;;;;;;12.05;2.92;;;;;;;9.65;95.25;98809.38;5033226;28;20041;-87
2024/01/03 02:00:56;;;;;;;12.60;2.50;;;;;;;9.65;94.41;98797.31;5040324;22;20057;-86
2024/01/03 02:03:22;;;;;;;17.23;2.58;;;;;;;9.69;94.44;98811.78;5032118;28;20512;-86
2024/01/03 02:05:47;;;;;;;15.70;2.60;;;;;;;9.71;94.24;98822.91;5032765;28;20045;-86
2024/01/03 02:08:13;;;;;;;14.47;2.63;;;;;;;9.75;93.38;98818.44;5033196;28;20100;-87
2024/01/03 02:10:38;;;;;;;12.47;2.40;;;;;;;9.79;93.00;98816.56;5032316;28;20386;-86
2024/01/03 02:13:03;;;;;;;14.00;2.70;;;;;;;9.79;93.19;98824.34;5033163;28;20040;-87
2024/01/03 02:15:28;;;;;;;15.93;2.93;;;;;;;9.83;92.14;98831.06;5032980;28;20029;-85
2024/01/03 02:17:55;;;;;;;9.53;2.20;;;;;;;9.83;93.05;98834.50;5032642;28;20026;-86
2024/01/03 02:20:23;;;;;;;15.40;2.70;;;;;;;9.83;93.42;98831.91;5032825;28;20026;-87
2024/01/03 02:22:49;;;;;;;11.90;2.42;;;;;;;9.83;94.38;98829.31;5032427;28;20064;-86
2024/01/03 02:25:14;;;;;;;8.80;2.67;;;;;;;9.79;94.95;98832.94;5033098;28;20061;-87
2024/01/03 02:27:42;;;;;;;14.33;2.73;;;;;;;9.77;96.15;98841.69;5032956;28;20108;-87
2024/01/03 02:30:08;;;;;;;10.07;2.63;;;;;;;9.74;97.00;98843.50;5032130;28;20373;-86
2024/01/03 02:32:37;;;;;;;12.50;2.50;;;;;;;9.73;97.64;98844.41;5032587;28;20030;-86
2024/01/03 02:35:02;;;;;;;11.82;2.40;;;;;;;9.67;99.27;98834.34;5032433;28;20021;-86
2024/01/03 02:37:27;;;;;;;10.33;2.50;;;;;;;9.64;99.57;98833.59;5032081;28;20037;-88
2024/01/03 02:39:53;;;;;;;13.23;3.07;;;;;;;9.55;100.00;98851.22;5033036;28;20112;-86
2024/01/03 02:42:18;;;;;;;14.53;2.73;;;;;;;9.55;100.00;98842.63;5033197;28;20377;-86
2024/01/03 02:44:43;;;;;;;13.90;2.63;;;;;;;9.50;100.00;98836.81;5032391;28;20550;-86
2024/01/03 02:47:09;;;;;;;10.00;2.40;;;;;;;9.50;100.00;98844.56;5032969;28;20026;-86
2024/01/03 02:49:34;;;;;;;14.60;3.00;;;;;;;9.47;100.00;98840.38;5032716;28;20028;-86
2024/01/03 02:52:00;;;;;;;15.43;2.57;;;;;;;9.41;100.00;98833.72;5032311;28;20107;-86
2024/01/03 02:54:26;;;;;;;13.77;2.97;;;;;;;9.46;100.00;98835.28;5032901;28;20485;-87
2024/01/03 02:56:51;;;;;;;13.40;3.10;;;;;;;9.43;100.00;98849.16;5031766;28;20029;-86
2024/01/03 02:59:16;;;;;;;12.97;2.67;;;;;;;9.41;100.00;98863.91;5032136;28;20025;-85
2024/01/03 03:01:43;;;;;;;14.77;3.20;;;;;;;9.38;100.00;98858.91;5032591;28;20041;-86
2024/01/03 03:04:08;;;;;;;14.52;3.17;;;;;;;9.34;100.00;98850.41;5032477;28;20160;-87
2024/01/03 03:06:34;;;;;;;10.83;2.43;;;;;;;9.34;100.00;98852.16;5031768;28;20084;-85
2024/01/03 03:08:59;;;;;;;12.07;2.40;;;;;;;9.34;100.00;98850.41;5035134;28;20025;-86
2024/01/03 03:11:24;;;;;;;15.03;3.57;;;;;;;9.33;100.00;98858.22;5036233;28;20521;-86
2024/01/03 03:13:49;;;;;;;15.63;2.90;;;;;;;9.26;100.00;98847.28;5035067;28;20026;-87
2024/01/03 03:16:15;;;;;;;13.47;3.00;;;;;;;9.29;100.00;98854.09;5036135;28;20108;-86
2024/01/03 03:18:40;;;;;;;10.33;2.70;;;;;;;9.28;100.00;98858.44;5035345;28;20029;-85
2024/01/03 03:21:11;;;;;;;12.57;2.83;;;;;;;9.25;100.00;98850.78;5035281;28;20120;-86
2024/01/03 03:23:37;;;;;;;14.88;2.83;;;;;;;9.21;100.00;98849.25;5034799;28;20108;-86
2024/01/03 03:26:03;;;;;;;15.00;3.13;;;;;;;9.25;100.00;98861.13;5035346;28;20029;-86
2024/01/03 03:28:30;;;;;;;15.10;3.00;;;;;;;9.24;100.00;98843.91;5035570;28;20037;-86
2024/01/03 03:30:55;;;;;;;14.65;2.90;;;;;;;9.22;100.00;98866.47;5035392;28;20485;-86
2024/01/03 03:33:23;;;;;;;12.57;2.57;;;;;;;9.23;100.00;98866.38;5035404;28;20096;-86
2024/01/03 03:35:48;;;;;;;14.55;3.03;;;;;;;9.23;100.00;98868.16;5035769;28;20406;-85
2024/01/03 03:38:13;;;;;;;11.93;2.50;;;;;;;9.20;100.00;98857.91;5035500;28;20029;-87
2024/01/03 03:40:39;;;;;;;16.27;3.20;;;;;;;9.23;100.00;98868.97;5035105;28;20018;-87
2024/01/03 03:43:04;;;;;;;13.07;2.83;;;;;;;9.16;100.00;98857.22;5036090;28;20032;-86
2024/01/03 03:45:32;;;;;;;15.57;3.10;;;;;;;9.17;100.00;98864.06;5035814;28;20032;-86
2024/01/03 03:47:57;;;;;;;13.13;2.78;;;;;;;9.10;100.00;98858.31;5035179;28;20028;-85
2024/01/03 03:50:23;;;;;;;13.83;2.83;;;;;;;9.13;100.00;98865.09;5035647;28;20378;-86
2024/01/03 03:53:21;;;;;;;17.53;3.00;;;;;;;9.11;100.00;98861.72;5035040;28;20105;-86
2024/01/03 03:55:50;;;;;;;14.23;3.03;;;;;;;8.98;100.00;98843.28;5033736;28;20026;-87
2024/01/03 03:58:24;;;;;;;16.00;2.92;;;;;;;9.04;100.00;98857.72;5035041;28;20040;-86
2024/01/03 04:01:15;;;;;;;12.80;2.80;;;;;;;9.04;100.00;98855.94;5032593;28;20511;-85
2024/01/03 04:03:43;;;;;;;13.63;2.80;;;;;;;8.95;100.00;98846.81;5035398;28;20029;-86
2024/01/03 04:06:09;;;;;;;10.63;2.47;;;;;;;9.03;100.00;98853.44;5035055;28;20520;-86
2024/01/03 04:08:34;;;;;;;11.77;2.53;;;;;;;8.98;100.00;98856.22;5034180;28;20021;-86
2024/01/03 04:11:03;;;;;;;12.67;3.03;;;;;;;8.83;100.00;98846.47;5034651;28;20024;-86
2024/01/03 04:14:29;;;;;;;15.32;2.50;;;;;;;8.92;100.00;98861.63;5042705;23;20045;-86
2024/01/03 04:16:54;;;;;;;13.98;2.58;;;;;;;8.88;100.00;98860.06;4973068;28;20039;-86
2024/01/03 04:19:19;;;;;;;10.50;2.47;;;;;;;8.90;100.00;98866.00;4973829;28;20035;-86
2024/01/03 04:21:45;;;;;;;15.73;2.70;;;;;;;8.92;100.00;98871.97;4973715;28;20022;-86
2024/01/03 04:24:10;;;;;;;15.53;2.67;;;;;;;8.94;100.00;98871.03;4973418;28;20066;-87
2024/01/03 04:26:35;;;;;;;11.93;2.57;;;;;;;8.92;100.00;98879.72;5006212;28;20034;-86
2024/01/03 04:29:01;;;;;;;9.40;2.13;;;;;;;8.93;100.00;98886.59;5036356;28;20083;-86
2024/01/03 04:31:29;;;;;;;13.40;2.10;;;;;;;8.91;100.00;98883.22;5036514;28;20140;-86
2024/01/03 04:33:54;;;;;;;13.02;2.70;;;;;;;8.91;100.00;98880.63;5037703;28;20035;-86
2024/01/03 04:36:19;;;;;;;10.07;2.33;;;;;;;9.01;100.00;98879.34;5034731;28;20100;-86
2024/01/03 04:39:10;;;;;;;8.77;2.27;;;;;;;8.97;100.00;98890.75;5034158;28;20025;-86
2024/01/03 04:41:35;;;;;;;9.07;2.00;;;;;;;8.85;100.00;98871.38;5033875;28;20053;-86
2024/01/03 04:44:10;;;;;;;11.67;2.50;;;;;;;8.87;100.00;98863.56;5033984;28;20056;-86
2024/01/03 04:46:57;;;;;;;12.27;2.50;;;;;;;8.91;100.00;98881.47;5034186;28;20121;-86
2024/01/03 04:49:29;;;;;;;8.35;2.25;;;;;;;8.87;100.00;98872.16;5034168;28;20017;-86
2024/01/03 04:52:14;;;;;;;10.25;2.22;;;;;;;8.91;100.00;98878.03;5033170;28;20385;-86
2024/01/03 04:54:45;;;;;;;7.00;1.90;;;;;;;8.90;100.00;98882.38;5034018;28;20022;-85
2024/01/03 04:57:10;;;;;;;10.90;2.10;;;;;;;8.89;100.00;98885.88;5033766;28;20061;-86
2024/01/03 04:59:36;;;;;;;13.00;2.40;;;;;;;8.90;100.00;98889.28;5032864;28;20056;-85
2024/01/03 05:02:01;;;;;;;11.97;2.20;;;;;;;8.91;100.00;98889.25;5034166;28;20492;-86
2024/01/03 05:04:26;;;;;;;8.63;2.23;;;;;;;8.95;100.00;98889.97;5033468;28;20037;-86
2024/01/03 05:06:52;;;;;;;8.83;2.13;;;;;;;8.91;100.00;98878.91;5034018;28;20497;-86
2024/01/03 05:09:17;;;;;;;9.80;2.00;;;;;;;8.94;100.00;98893.44;5033913;28;20033;-86
2024/01/03 05:11:42;;;;;;;7.67;1.70;;;;;;;8.92;100.00;98892.66;5032997;28;20041;-86
2024/01/03 05:14:07;;;;;;;7.20;1.90;;;;;;;8.93;100.00;98894.34;5044715;28;20060;-87
2024/01/03 05:16:33;;;;;;;10.50;2.00;;;;;;;8.90;100.00;98902.22;5053665;28;20118;-85
2024/01/03 05:18:58;;;;;;;9.07;1.90;;;;;;;8.86;100.00;98898.91;5053308;28;20032;-86
2024/01/03 05:21:29;;;;;;;4.00;1.43;;;;;;;8.80;100.00;98887.06;5053471;28;20051;-88
2024/01/03 05:23:55;;;;;;;9.38;1.90;;;;;;;8.74;100.00;98900.25;5053029;28;20083;-87
2024/01/03 05:26:20;;;;;;;5.40;1.50;;;;;;;8.69;100.00;98894.41;5053002;28;20358;-87
2024/01/03 05:28:45;;;;;;;6.03;1.53;;;;;;;8.64;100.00;98901.50;5052987;28;20025;-86
2024/01/03 05:31:10;;;;;;;6.13;1.57;;;;;;;8.58;100.00;98891.41;5052983;28;20083;-87
2024/01/03 05:33:36;;;;;;;6.17;1.60;;;;;;;8.57;100.00;98889.69;5052627;28;20025;-86
2024/01/03 05:36:07;;;;;;;3.30;1.40;;;;;;;8.54;100.00;98900.19;5053591;28;20028;-86
2024/01/03 05:38:35;;;;;;;4.75;1.60;;;;;;;8.52;100.00;98907.97;5052990;28;20036;-86
2024/01/03 05:41:00;;;;;;;7.07;1.55;;;;;;;8.48;100.00;98890.91;5052989;28;20104;-86
2024/01/03 05:43:28;;;;;;;6.27;1.63;;;;;;;8.49;100.00;98888.25;5053725;28;20503;-87
2024/01/03 05:45:54;;;;;;;6.75;1.70;;;;;;;8.47;100.00;98902.13;5052995;28;20492;-86
2024/01/03 05:48:22;;;;;;;7.77;1.30;;;;;;;8.46;100.00;98895.28;5053332;28;20036;-87
2024/01/03 05:50:47;;;;;;;3.92;1.33;;;;;;;8.45;100.00;98904.75;5053223;28;20033;-87
2024/01/03 05:53:12;;;;;;;6.77;1.50;;;;;;;8.35;100.00;98886.19;5053765;28;20047;-87
2024/01/03 05:55:38;;;;;;;3.00;1.20;;;;;;;8.40;100.00;98892.91;5052712;28;20025;-86
2024/01/03 05:58:06;;;;;;;5.73;1.43;;;;;;;8.30;100.00;98890.66;5053660;28;20017;-88
2024/01/03 06:00:31;;;;;;;4.43;1.00;;;;;;;8.28;100.00;98889.88;5053734;28;20078;-88
2024/01/03 06:02:56;;;;;;;3.67;0.87;;;;;;;8.26;100.00;98896.00;5053045;28;20492;-86
2024/01/03 06:05:22;;;;;;;7.40;1.50;;;;;;;8.27;100.00;98898.56;5053358;28;20052;-87
2024/01/03 06:07:47;;;;;;;4.20;1.30;;;;;;;8.22;100.00;98913.38;5052552;28;20143;-88
2024/01/03 06:10:12;;;;;;;5.20;1.40;;;;;;;8.27;100.00;98908.03;5053101;28;20047;-87
2024/01/03 06:12:39;;;;;;;5.07;1.50;;;;;;;8.24;100.00;98911.59;5053461;28;20048;-89
2024/01/03 06:15:06;;;;;;;6.50;1.50;;;;;;;8.21;100.00;98916.84;5053548;28;20037;-89
2024/01/03 06:17:31;;;;;;;6.53;1.58;;;;;;;8.25;100.00;98907.25;5053379;28;20055;-90
2024/01/03 06:19:56;;;;;;;6.20;1.47;;;;;;;8.15;100.00;98917.91;5053903;28;20477;-88
2024/01/03 06:22:22;;;;;;;5.73;1.70;;;;;;;8.12;100.00;98910.28;5053517;28;20045;-90
2024/01/03 06:24:47;;;;;;;4.47;1.40;;;;;;;8.08;100.00;98907.84;5053544;28;20021;-88
2024/01/03 06:27:12;;;;;;;4.57;1.43;;;;;;;8.06;100.00;98912.22;5053784;28;20025;-88
2024/01/03 06:29:37;;;;;;;2.37;1.23;;;;;;;8.02;100.00;98911.50;5053318;28;20025;-89
2024/01/03 06:32:03;;;;;;;3.20;1.23;;;;;;;8.03;100.00;98915.78;5053553;28;20017;-89
2024/01/03 06:34:28;;;;;;;3.13;1.13;;;;;;;8.00;100.00;98915.88;5053536;28;20112;-89
2024/01/03 06:36:53;;;;;;;2.87;1.57;;;;;;;7.96;100.00;98898.81;5053806;28;20083;-89
2024/01/03 06:39:19;;;;;;;4.90;1.20;;;;;;;7.98;100.00;98913.34;5053402;28;20035;-87
2024/01/03 06:41:44;;;;;;;3.67;1.40;;;;;;;7.89;100.00;98900.78;5053828;28;20056;-89
2024/01/03 06:44:09;;;;;;;6.83;1.90;;;;;;;7.89;100.00;98908.53;5057257;28;20104;-89
2024/01/03 06:46:34;;;;;;;6.93;1.50;;;;;;;7.86;100.00;98917.22;5057571;28;20025;-89
2024/01/03 06:49:00;;;;;;;3.80;1.17;;;;;;;7.86;100.00;98918.94;5057521;28;20036;-89
2024/01/03 06:51:25;;;;;;;2.73;1.10;;;;;;;7.83;100.00;98912.16;5056946;28;20488;-89
2024/01/03 06:53:53;;;;;;;3.23;1.10;;;;;;;7.81;100.00;98910.53;5056816;28;20028;-89
2024/01/03 06:56:24;;;;;;;3.45;1.17;;;;;;;7.81;100.00;98919.13;5056792;28;20021;-89
2024/01/03 06:58:50;;;;;;;2.97;1.30;;;;;;;7.78;100.00;98934.72;5056548;28;20021;-89
2024/01/03 07:01:16;;;;;;;4.13;1.33;;;;;;;7.76;100.00;98941.69;5057237;28;20036;-89
2024/01/03 07:03:44;;;;;;;2.03;0.97;;;;;;;7.68;100.00;98943.66;5057286;28;20029;-89
2024/01/03 07:06:10;;;;;;;4.78;1.20;;;;;;;7.71;100.00;98941.00;5056559;28;20086;-89
2024/01/03 07:08:35;;;;;;;4.50;1.40;;;;;;;7.68;100.00;98944.53;5066706;28;20084;-91
2024/01/03 07:11:00;;;;;;;4.27;1.37;;;;;;;7.61;100.00;98937.03;5063917;28;20021;-87
2024/01/03 07:13:26;;;;;;;2.70;1.10;;;;;;;7.55;100.00;98940.66;5065217;28;20048;-88
2024/01/03 07:15:51;;;;;;;1.63;0.90;;;;;;;7.51;100.00;98941.66;5059306;28;20023;-88
2024/01/03 07:18:16;;;;;;;1.73;0.80;;;;;;;7.46;100.00;98941.81;5056252;28;20060;-89
2024/01/03 07:20:41;;;;;;;3.23;0.90;;;;;;;7.34;100.00;98947.38;5055989;28;20110;-88
2024/01/03 07:23:07;;;;;;;0.77;0.40;;;;;;;7.33;100.00;98953.41;5056065;28;20031;-88
2024/01/03 07:25:33;;;;;;;1.60;0.67;;;;;;;7.24;100.00;98939.94;5055955;28;20028;-88
2024/01/03 07:27:58;;;;;;;1.63;0.70;;;;;;;7.22;100.00;98951.19;5056277;28;20068;-87
2024/01/03 07:30:25;;;;;;;0.93;0.57;;;;;;;7.21;100.00;98955.50;5055843;28;20388;-88
2024/01/03 07:32:52;;;;;;;0.73;0.50;;;;;;;7.20;100.00;98958.13;5055247;28;20138;-88
2024/01/03 07:35:18;;;;;;;0.93;0.60;;;;;;;7.20;100.00;98963.31;5055921;28;20025;-88
2024/01/03 07:37:43;;;;;;;0.77;0.50;;;;;;;7.16;100.00;98965.13;5055921;28;20017;-88
2024/01/03 07:40:09;;;;;;;3.33;0.53;;;;;;;7.16;100.00;98961.69;5055649;28;20397;-89
2024/01/03 07:42:35;;;;;;;2.15;0.50;;;;;;;7.14;100.00;98966.09;5055930;28;20029;-88
2024/01/03 07:45:00;;;;;;;0.70;0.50;;;;;;;7.13;100.00;98970.38;5056340;28;20036;-88
2024/01/03 07:47:25;;;;;;;2.55;0.68;;;;;;;7.11;100.00;98974.75;5055255;28;20021;-93
2024/01/03 07:49:50;;;;;;;1.47;0.70;;;;;;;7.14;100.00;98976.41;5056039;28;20040;-89
2024/01/03 07:52:16;;;;;;;0.57;0.53;;;;;;;7.15;100.00;98975.50;5056203;28;20115;-91
2024/01/03 07:54:41;;;;;;;1.57;0.70;;;;;;;7.16;100.00;98974.59;5055069;28;20143;-93
2024/01/03 07:57:06;;;;;;;0.95;0.70;;;;;;;7.16;100.00;98984.91;5056329;28;20049;-91
2024/01/03 07:59:32;;;;;;;1.43;0.50;;;;;;;7.20;100.00;98978.78;5056105;28;20104;-91
2024/01/03 08:01:57;;;;;;;0.70;0.70;;;;;;;7.18;100.00;98983.13;5055752;28;20051;-90
2024/01/03 08:04:22;;;;;;;3.17;1.10;;;;;;;7.23;100.00;98979.53;5055829;28;20032;-90
2024/01/03 08:06:48;;;;;;;3.17;1.57;;;;;;;7.21;100.00;98983.88;5055171;28;20082;-89
2024/01/03 08:09:16;;;;;;;2.20;1.50;;;;;;;7.23;100.00;98984.69;5055147;28;20025;-89
2024/01/03 08:11:41;;;;;;;2.55;1.65;;;;;;;7.26;100.00;98981.19;5055294;28;20075;-89
2024/01/03 08:14:06;;;;;;;3.00;1.60;;;;;;;7.31;100.00;98984.44;5055234;28;20049;-88
2024/01/03 08:16:32;;;;;;;2.95;1.80;;;;;;;7.31;100.00;98981.03;5055560;28;20028;-96
2024/01/03 08:19:00;;;;;;;3.17;1.63;;;;;;;7.35;100.00;98996.38;5056643;28;20363;-88
2024/01/03 08:21:25;;;;;;;6.13;1.70;;;;;;;7.31;100.00;98987.03;5061762;22;20045;-85
2024/01/03 08:23:50;;;;;;;4.50;1.67;;;;;;;7.39;100.00;98989.38;5056136;28;20040;-81
2024/01/03 08:26:16;;;;;;;3.50;1.80;;;;;;;7.38;100.00;98991.09;5056722;28;20044;-85
2024/01/03 08:28:41;;;;;;;5.00;1.83;;;;;;;7.39;100.00;99004.84;5055835;28;20037;-93
2024/01/03 08:31:14;;;;;;;4.67;1.63;;;;;;;7.40;100.00;98994.47;5055771;28;20023;-90
2024/01/03 08:33:40;;;;;;;2.90;1.42;;;;;;;7.44;100.00;99002.13;5035308;28;20048;-89
2024/01/03 08:36:10;;;;;;;3.40;1.50;;;;;;;7.42;100.00;98989.28;5035504;28;20022;-91
2024/01/03 08:38:35;;;;;;;5.20;1.50;;;;;;;7.47;100.00;99002.88;5035327;28;20036;-91
2024/01/03 08:41:01;;;;;;;4.83;1.67;;;;;;;7.48;100.00;99006.31;5035693;28;20108;-90
2024/01/03 08:43:26;;;;;;;4.65;1.45;;;;;;;7.49;100.00;99008.84;5034928;28;20033;-90
2024/01/03 08:45:52;;;;;;;7.03;1.45;;;;;;;7.53;100.00;99018.19;5035079;28;20048;-90
2024/01/03 08:48:17;;;;;;;5.70;1.40;;;;;;;7.54;100.00;99008.69;5035894;28;20036;-89
2024/01/03 08:50:43;;;;;;;5.97;1.50;;;;;;;7.56;100.00;99012.88;5034930;28;20029;-89
2024/01/03 08:53:08;;;;;;;4.17;1.53;;;;;;;7.54;100.00;99000.94;5035643;28;20079;-89
2024/01/03 08:55:33;;;;;;;6.33;1.50;;;;;;;7.63;100.00;99020.44;5035447;28;20466;-90
2024/01/03 08:57:59;;;;;;;5.23;1.80;;;;;;;7.63;100.00;99010.13;5035275;28;20473;-90
2024/01/03 09:00:27;;;;;;;8.37;1.80;;;;;;;7.67;100.00;99017.72;5042141;28;20473;-91
2024/01/03 09:02:57;;;;;;;10.27;2.10;;;;;;;7.76;100.00;99021.75;5054928;28;20098;-92
2024/01/03 09:05:22;;;;;;;10.13;2.20;;;;;;;7.76;100.00;99024.31;5054923;28;20031;-91
2024/01/03 09:07:48;;;;;;;8.17;1.83;;;;;;;7.79;100.00;99019.03;5054148;28;20033;-91
2024/01/03 09:10:14;;;;;;;9.67;2.10;;;;;;;7.82;100.00;99012.94;5055523;28;20032;-90
2024/01/03 09:12:41;;;;;;;12.40;2.67;;;;;;;7.84;100.00;99014.56;5055191;28;20411;-90
2024/01/03 09:15:07;;;;;;;9.70;2.00;;;;;;;7.86;100.00;99022.25;5055075;28;20060;-90
2024/01/03 09:17:32;;;;;;;9.10;2.00;;;;;;;7.91;100.00;99030.72;5054763;28;20025;-90
2024/01/03 09:19:58;;;;;;;6.73;1.87;;;;;;;7.97;100.00;99032.25;5054849;28;20021;-93
2024/01/03 09:22:23;;;;;;;8.20;2.10;;;;;;;7.94;100.00;99019.44;5054780;28;20457;-87
2024/01/03 09:24:48;;;;;;;10.73;2.40;;;;;;;8.03;100.00;99032.03;5054383;28;20096;-93
2024/01/03 09:27:14;;;;;;;10.47;2.30;;;;;;;8.04;100.00;99024.25;5054849;28;20024;-96
2024/01/03 09:29:40;;;;;;;13.83;2.50;;;;;;;8.13;100.00;99036.00;5053970;28;20028;-87
2024/01/03 09:32:07;;;;;;;10.82;2.50;;;;;;;8.17;100.00;99041.88;5053313;28;20029;-88
2024/01/03 09:34:37;;;;;;;10.73;2.30;;;;;;;8.21;100.00;99032.31;5053332;28;20383;-88
2024/01/03 09:37:05;;;;;;;13.15;2.50;;;;;;;8.30;100.00;99042.31;5054119;28;20076;-89
2024/01/03 09:39:30;;;;;;;13.18;2.78;;;;;;;8.35;100.00;99027.47;5053750;28;20095;-88
2024/01/03 09:41:55;;;;;;;9.67;2.13;;;;;;;8.43;100.00;99045.31;5054308;28;20473;-89
2024/01/03 09:44:21;;;;;;;11.70;2.43;;;;;;;8.44;100.00;99039.25;5054033;28;20408;-88
2024/01/03 09:46:49;;;;;;;7.97;2.17;;;;;;;8.50;100.00;99050.25;5052739;28;20025;-88
2024/01/03 09:49:17;;;;;;;10.40;2.30;;;;;;;8.52;100.00;99042.44;5056092;28;20017;-90
2024/01/03 09:51:44;;;;;;;12.68;2.55;;;;;;;8.64;100.00;99048.91;5061097;28;20021;-89
2024/01/03 09:54:09;;;;;;;11.35;2.20;;;;;;;8.62;100.00;99048.94;5065511;28;20050;-91
2024/01/03 09:56:40;;;;;;;13.23;2.60;;;;;;;8.70;100.00;99048.69;5057956;28;20104;-93
2024/01/03 09:59:06;;;;;;;14.02;2.50;;;;;;;8.71;100.00;99046.97;5054116;28;20091;-92
2024/01/03 10:01:32;;;;;;;12.90;2.60;;;;;;;8.79;100.00;99052.69;5054016;28;20111;-90
2024/01/03 10:03:58;;;;;;;9.50;2.40;;;;;;;8.81;100.00;99059.47;5054185;28;20021;-89
2024/01/03 10:06:23;;;;;;;9.57;2.20;;;;;;;8.85;100.00;99057.63;5055062;28;20609;-95
2024/01/03 10:09:18;;;;;;;11.87;2.53;;;;;;;8.88;100.00;99051.50;5053594;28;20113;-88
2024/01/03 10:11:44;;;;;;;13.50;2.40;;;;;;;8.91;100.00;99051.38;5036116;28;20032;-90
2024/01/03 10:14:21;;;;;;;10.27;2.27;;;;;;;8.91;100.00;99072.06;5053260;28;20488;-90
2024/01/03 10:16:48;;;;;;;11.73;2.33;;;;;;;8.93;100.00;99070.28;5054373;28;20481;-86
2024/01/03 10:19:14;;;;;;;11.20;2.53;;;;;;;8.90;100.00;99068.66;5057951;28;20033;-90
2024/01/03 10:21:50;;;;;;;13.85;2.78;;;;;;;8.91;100.00;99053.97;5056637;28;20120;-89
2024/01/03 10:24:17;;;;;;;13.68;2.50;;;;;;;8.95;100.00;99060.72;5058054;28;20056;-92
2024/01/03 10:26:42;;;;;;;13.88;2.67;;;;;;;8.98;100.00;99064.94;5058171;28;20035;-92
2024/01/03 10:29:20;;;;;;;9.70;2.50;;;;;;;9.05;100.00;99062.06;5060254;28;20100;-92
2024/01/03 10:31:47;;;;;;;8.90;2.50;;;;;;;9.13;100.00;99059.19;5064371;28;20017;-96
2024/01/03 10:34:22;;;;;;;13.88;3.13;;;;;;;9.22;100.00;99076.13;5065751;28;20029;-95
2024/01/03 10:36:47;;;;;;;15.13;2.97;;;;;;;9.18;100.00;99080.53;5059414;28;20032;-92
2024/01/03 10:39:16;;;;;;;12.50;3.20;;;;;;;9.22;100.00;99078.72;5058886;28;20029;-92
2024/01/03 10:41:43;;;;;;;12.38;2.53;;;;;;;9.19;100.00;99076.22;5057606;28;20029;-93
2024/01/03 10:44:10;;;;;;;15.27;2.90;;;;;;;9.23;100.00;99076.06;5058707;28;20074;-94
2024/01/03 10:46:36;;;;;;;11.52;2.58;;;;;;;9.21;100.00;99082.19;5058462;28;20021;-94
2024/01/03 10:49:08;;;;;;;12.97;2.77;;;;;;;9.22;100.00;99078.72;5058570;28;20025;-94
2024/01/03 10:51:43;;;;;;;11.38;2.67;;;;;;;9.21;100.00;99084.78;5058810;28;20033;-95
2024/01/03 10:54:15;;;;;;;14.65;2.55;;;;;;;9.21;100.00;99083.03;5059011;28;20104;-95
2024/01/03 10:56:49;;;;;;;13.95;3.25;;;;;;;9.20;100.00;99088.28;5058937;28;20040;-95
2024/01/03 10:59:15;;;;;;;16.27;2.83;;;;;;;9.21;100.00;99072.66;5058969;28;20029;-87
2024/01/03 11:02:03;;;;;;;11.87;2.53;;;;;;;9.21;100.00;99077.84;5061899;28;20025;-90
2024/01/03 11:04:40;;;;;;;8.63;2.05;;;;;;;9.19;100.00;99066.69;5056391;28;20037;-91
2024/01/03 11:07:14;;;;;;;10.00;2.30;;;;;;;9.24;100.00;99063.94;5058059;28;20500;-95
2024/01/03 11:09:40;;;;;;;12.30;2.55;;;;;;;9.30;100.00;99066.31;5058106;28;20488;-93
2024/01/03 11:12:09;;;;;;;9.97;2.30;;;;;;;9.35;100.00;99068.72;5058236;28;20017;-96
2024/01/03 11:14:35;;;;;;;12.43;2.38;;;;;;;9.34;100.00;99067.03;5058174;28;20025;-96
2024/01/03 11:17:01;;;;;;;14.07;2.57;;;;;;;9.34;100.00;99074.78;5057641;28;20029;-95
2024/01/03 11:19:31;;;;;;;13.20;2.70;;;;;;;9.24;100.00;99071.69;5057751;28;20400;-95
2024/01/03 11:21:59;;;;;;;13.48;2.72;;;;;;;9.15;100.00;99072.06;5057510;28;20611;-94
2024/01/03 11:24:27;;;;;;;14.50;2.75;;;;;;;9.11;100.00;99071.34;5056879;28;20070;-93
2024/01/03 11:26:55;;;;;;;12.98;2.50;;;;;;;9.08;100.00;99081.78;5064512;28;20461;-92
2024/01/03 11:29:41;;;;;;;12.32;2.65;;;;;;;8.96;100.00;99085.69;5071559;28;20032;-94
2024/01/03 11:32:09;;;;;;;12.50;2.53;;;;;;;8.90;100.00;99078.13;5077858;28;20032;-91
2024/01/03 11:34:48;;;;;;;12.18;2.50;;;;;;;8.82;100.00;99070.69;5076684;28;20477;-93
2024/01/03 11:37:16;;;;;;;12.10;2.63;;;;;;;8.80;100.00;99088.84;5076324;28;20039;-93
2024/01/03 11:39:43;;;;;;;13.93;2.80;;;;;;;8.74;100.00;99076.13;5076521;28;20032;-92
2024/01/03 11:42:28;;;;;;;9.20;2.20;;;;;;;8.70;100.00;99084.06;5076614;28;20020;-92